sensor_id;sensor_type;location;lat;lon;timestamp;temperature;humidity
13369;DHT22;6753;52.520;13.450;2023-08-21T00:00:02;23.60;73.00
13369;DHT22;6753;52.520;13.450;2023-08-21T00:00:14;23.60;72.90
13369;DHT22;6753;52.520;13.450;2023-08-21T00:00:25;23.60;73.00
13369;DHT22;6753;52.520;13.450;2023-08-21T00:00:37;23.40;72.80
13369;DHT22;6753;52.520;13.450;2023-08-21T00:00:48;23.60;73.00
13369;DHT22;6753;52.520;13.450;2023-08-21T00:00:58;23.60;73.00
13369;DHT22;6753;52.520;13.450;2023-08-21T00:01:09;23.60;73.00
13369;DHT22;6753;52.520;13.450;2023-08-21T00:01:20;23.50;72.90
13369;DHT22;6753;52.520;13.450;2023-08-21T00:01:31;23.50;72.90
13369;DHT22;6753;52.520;13.450;2023-08-21T00:01:41;23.50;72.90
13369;DHT22;6753;52.520;13.450;2023-08-21T00:01:52;23.70;73.10
13369;DHT22;6753;52.520;13.450;2023-08-21T00:02:03;23.60;73.20
13369;DHT22;6753;52.520;13.450;2023-08-21T00:02:15;23.60;73.00
13369;DHT22;6753;52.520;13.450;2023-08-21T00:02:26;23.50;72.90
13369;DHT22;6753;52.520;13.450;2023-08-21T00:02:38;23.60;73.00
13369;DHT22;6753;52.520;13.450;2023-08-21T00:02:49;23.60;72.90
13369;DHT22;6753;52.520;13.450;2023-08-21T00:02:59;23.50;72.90
13369;DHT22;6753;52.520;13.450;2023-08-21T00:03:10;23.60;72.90
13369;DHT22;6753;52.520;13.450;2023-08-21T00:03:21;23.60;72.90
13369;DHT22;6753;52.520;13.450;2023-08-21T00:03:32;23.50;72.90
13369;DHT22;6753;52.520;13.450;2023-08-21T00:03:44;23.50;72.90
13369;DHT22;6753;52.520;13.450;2023-08-21T00:03:55;23.50;72.90
13369;DHT22;6753;52.520;13.450;2023-08-21T00:04:06;23.50;72.90
13369;DHT22;6753;52.520;13.450;2023-08-21T00:04:17;23.60;72.90
13369;DHT22;6753;52.520;13.450;2023-08-21T00:04:28;23.50;72.90
13369;DHT22;6753;52.520;13.450;2023-08-21T00:04:39;23.60;72.90
13369;DHT22;6753;52.520;13.450;2023-08-21T00:04:50;23.70;73.00
13369;DHT22;6753;52.520;13.450;2023-08-21T00:05:00;23.50;72.80
13369;DHT22;6753;52.520;13.450;2023-08-21T00:05:11;23.60;72.90
13369;DHT22;6753;52.520;13.450;2023-08-21T00:05:22;23.60;73.20
13369;DHT22;6753;52.520;13.450;2023-08-21T00:05:33;23.50;72.90
13369;DHT22;6753;52.520;13.450;2023-08-21T00:05:43;23.50;72.90
13369;DHT22;6753;52.520;13.450;2023-08-21T00:05:55;23.50;72.80
13369;DHT22;6753;52.520;13.450;2023-08-21T00:06:06;23.50;72.90
13369;DHT22;6753;52.520;13.450;2023-08-21T00:06:18;23.50;72.90
13369;DHT22;6753;52.520;13.450;2023-08-21T00:06:29;23.60;72.90
13369;DHT22;6753;52.520;13.450;2023-08-21T00:06:40;23.60;72.90
13369;DHT22;6753;52.520;13.450;2023-08-21T00:06:50;23.50;72.90
13369;DHT22;6753;52.520;13.450;2023-08-21T00:07:01;23.50;72.90
13369;DHT22;6753;52.520;13.450;2023-08-21T00:07:12;23.50;72.90
13369;DHT22;6753;52.520;13.450;2023-08-21T00:07:23;23.50;72.90
13369;DHT22;6753;52.520;13.450;2023-08-21T00:07:34;23.50;72.90
13369;DHT22;6753;52.520;13.450;2023-08-21T00:07:45;23.50;72.90
13369;DHT22;6753;52.520;13.450;2023-08-21T00:07:57;23.50;72.90
13369;DHT22;6753;52.520;13.450;2023-08-21T00:08:07;23.50;72.90
13369;DHT22;6753;52.520;13.450;2023-08-21T00:08:18;23.50;72.80
13369;DHT22;6753;52.520;13.450;2023-08-21T00:08:29;23.50;72.80
13369;DHT22;6753;52.520;13.450;2023-08-21T00:08:40;23.80;73.00
13369;DHT22;6753;52.520;13.450;2023-08-21T00:08:50;23.70;73.00
13369;DHT22;6753;52.520;13.450;2023-08-21T00:09:01;23.50;72.80
13369;DHT22;6753;52.520;13.450;2023-08-21T00:09:12;23.50;72.80
13369;DHT22;6753;52.520;13.450;2023-08-21T00:09:23;23.50;72.80
13369;DHT22;6753;52.520;13.450;2023-08-21T00:09:35;23.50;72.80
13369;DHT22;6753;52.520;13.450;2023-08-21T00:09:46;23.50;72.80
13369;DHT22;6753;52.520;13.450;2023-08-21T00:09:56;23.50;72.80
13369;DHT22;6753;52.520;13.450;2023-08-21T00:10:08;23.50;72.80
13369;DHT22;6753;52.520;13.450;2023-08-21T00:10:20;23.50;72.80
13369;DHT22;6753;52.520;13.450;2023-08-21T00:10:31;23.50;72.80
13369;DHT22;6753;52.520;13.450;2023-08-21T00:10:42;23.50;72.80
13369;DHT22;6753;52.520;13.450;2023-08-21T00:10:53;23.50;72.80
13369;DHT22;6753;52.520;13.450;2023-08-21T00:11:03;23.50;72.80
13369;DHT22;6753;52.520;13.450;2023-08-21T00:11:15;23.50;72.80
13369;DHT22;6753;52.520;13.450;2023-08-21T00:11:26;23.50;72.80
13369;DHT22;6753;52.520;13.450;2023-08-21T00:11:37;23.50;72.80
13369;DHT22;6753;52.520;13.450;2023-08-21T00:11:48;23.50;73.10
13369;DHT22;6753;52.520;13.450;2023-08-21T00:11:58;23.50;72.80
13369;DHT22;6753;52.520;13.450;2023-08-21T00:12:09;23.50;72.90
13369;DHT22;6753;52.520;13.450;2023-08-21T00:12:20;23.50;72.90
13369;DHT22;6753;52.520;13.450;2023-08-21T00:12:31;23.50;72.80
13369;DHT22;6753;52.520;13.450;2023-08-21T00:12:41;23.50;72.80
13369;DHT22;6753;52.520;13.450;2023-08-21T00:12:52;23.50;72.80
13369;DHT22;6753;52.520;13.450;2023-08-21T00:13:04;23.50;72.80
13369;DHT22;6753;52.520;13.450;2023-08-21T00:13:15;23.50;72.80
13369;DHT22;6753;52.520;13.450;2023-08-21T00:13:26;23.50;72.80
13369;DHT22;6753;52.520;13.450;2023-08-21T00:13:36;23.50;72.80
13369;DHT22;6753;52.520;13.450;2023-08-21T00:13:47;23.50;72.80
13369;DHT22;6753;52.520;13.450;2023-08-21T00:13:59;23.50;72.80
13369;DHT22;6753;52.520;13.450;2023-08-21T00:14:10;23.50;72.80
13369;DHT22;6753;52.520;13.450;2023-08-21T00:14:21;23.80;73.00
13369;DHT22;6753;52.520;13.450;2023-08-21T00:14:32;23.60;72.90
13369;DHT22;6753;52.520;13.450;2023-08-21T00:14:42;23.50;72.80
13369;DHT22;6753;52.520;13.450;2023-08-21T00:14:54;23.50;72.80
13369;DHT22;6753;52.520;13.450;2023-08-21T00:15:06;23.50;72.80
13369;DHT22;6753;52.520;13.450;2023-08-21T00:15:17;23.50;72.80
13369;DHT22;6753;52.520;13.450;2023-08-21T00:15:28;23.50;72.80
13369;DHT22;6753;52.520;13.450;2023-08-21T00:15:39;23.50;72.80
13369;DHT22;6753;52.520;13.450;2023-08-21T00:15:49;23.50;72.80
13369;DHT22;6753;52.520;13.450;2023-08-21T00:16:00;23.50;72.80
13369;DHT22;6753;52.520;13.450;2023-08-21T00:16:11;23.50;72.70
13369;DHT22;6753;52.520;13.450;2023-08-21T00:16:22;23.80;72.90
13369;DHT22;6753;52.520;13.450;2023-08-21T00:16:32;23.50;72.80
13369;DHT22;6753;52.520;13.450;2023-08-21T00:16:45;23.50;72.80
13369;DHT22;6753;52.520;13.450;2023-08-21T00:16:55;23.50;72.80
13369;DHT22;6753;52.520;13.450;2023-08-21T00:17:06;23.50;72.80
13369;DHT22;6753;52.520;13.450;2023-08-21T00:17:17;23.50;72.80
13369;DHT22;6753;52.520;13.450;2023-08-21T00:17:28;23.50;72.80
13369;DHT22;6753;52.520;13.450;2023-08-21T00:17:38;23.50;72.80
13369;DHT22;6753;52.520;13.450;2023-08-21T00:17:49;23.50;72.80
13369;DHT22;6753;52.520;13.450;2023-08-21T00:18:00;23.50;72.80
13369;DHT22;6753;52.520;13.450;2023-08-21T00:18:11;23.50;72.80
13369;DHT22;6753;52.520;13.450;2023-08-21T00:18:23;23.50;73.00
13369;DHT22;6753;52.520;13.450;2023-08-21T00:18:33;23.50;72.80
13369;DHT22;6753;52.520;13.450;2023-08-21T00:18:44;23.50;72.80
13369;DHT22;6753;52.520;13.450;2023-08-21T00:18:55;23.50;72.80
13369;DHT22;6753;52.520;13.450;2023-08-21T00:19:05;23.50;72.80
13369;DHT22;6753;52.520;13.450;2023-08-21T00:19:16;23.40;72.70
13369;DHT22;6753;52.520;13.450;2023-08-21T00:19:27;23.50;72.80
13369;DHT22;6753;52.520;13.450;2023-08-21T00:19:38;23.50;72.80
13369;DHT22;6753;52.520;13.450;2023-08-21T00:19:49;23.60;72.80
13369;DHT22;6753;52.520;13.450;2023-08-21T00:20:01;23.50;72.80
13369;DHT22;6753;52.520;13.450;2023-08-21T00:20:12;23.50;72.80
13369;DHT22;6753;52.520;13.450;2023-08-21T00:20:23;23.50;72.80
13369;DHT22;6753;52.520;13.450;2023-08-21T00:20:34;23.50;72.80
13369;DHT22;6753;52.520;13.450;2023-08-21T00:20:45;23.70;72.90
13369;DHT22;6753;52.520;13.450;2023-08-21T00:20:57;23.50;72.80
13369;DHT22;6753;52.520;13.450;2023-08-21T00:21:08;23.50;72.80
13369;DHT22;6753;52.520;13.450;2023-08-21T00:21:19;23.60;72.80
13369;DHT22;6753;52.520;13.450;2023-08-21T00:21:29;23.50;72.80
13369;DHT22;6753;52.520;13.450;2023-08-21T00:21:40;23.50;72.80
13369;DHT22;6753;52.520;13.450;2023-08-21T00:21:52;23.50;72.80
13369;DHT22;6753;52.520;13.450;2023-08-21T00:22:03;23.50;72.80
13369;DHT22;6753;52.520;13.450;2023-08-21T00:22:14;23.50;72.80
13369;DHT22;6753;52.520;13.450;2023-08-21T00:22:28;23.50;72.80
13369;DHT22;6753;52.520;13.450;2023-08-21T00:22:39;23.60;72.80
13369;DHT22;6753;52.520;13.450;2023-08-21T00:22:49;23.50;72.70
13369;DHT22;6753;52.520;13.450;2023-08-21T00:23:00;23.50;72.70
13369;DHT22;6753;52.520;13.450;2023-08-21T00:23:11;23.60;72.80
13369;DHT22;6753;52.520;13.450;2023-08-21T00:23:21;23.50;72.80
13369;DHT22;6753;52.520;13.450;2023-08-21T00:23:32;23.50;72.70
13369;DHT22;6753;52.520;13.450;2023-08-21T00:23:43;23.50;72.80
13369;DHT22;6753;52.520;13.450;2023-08-21T00:23:55;23.50;72.80
13369;DHT22;6753;52.520;13.450;2023-08-21T00:24:06;23.50;72.80
13369;DHT22;6753;52.520;13.450;2023-08-21T00:24:17;23.50;73.00
13369;DHT22;6753;52.520;13.450;2023-08-21T00:24:27;23.50;72.80
13369;DHT22;6753;52.520;13.450;2023-08-21T00:24:38;23.50;72.70
13369;DHT22;6753;52.520;13.450;2023-08-21T00:24:49;23.50;72.70
13369;DHT22;6753;52.520;13.450;2023-08-21T00:25:00;23.50;72.80
13369;DHT22;6753;52.520;13.450;2023-08-21T00:25:10;23.50;72.70
13369;DHT22;6753;52.520;13.450;2023-08-21T00:25:21;23.50;72.70
13369;DHT22;6753;52.520;13.450;2023-08-21T00:25:33;23.50;72.70
13369;DHT22;6753;52.520;13.450;2023-08-21T00:25:47;23.50;72.70
13369;DHT22;6753;52.520;13.450;2023-08-21T00:25:58;23.60;72.80
13369;DHT22;6753;52.520;13.450;2023-08-21T00:26:09;23.50;72.70
13369;DHT22;6753;52.520;13.450;2023-08-21T00:26:19;23.50;72.70
13369;DHT22;6753;52.520;13.450;2023-08-21T00:26:30;23.80;72.90
13369;DHT22;6753;52.520;13.450;2023-08-21T00:26:41;23.50;72.70
13369;DHT22;6753;52.520;13.450;2023-08-21T00:26:51;23.50;72.70
13369;DHT22;6753;52.520;13.450;2023-08-21T00:27:02;23.50;72.70
13369;DHT22;6753;52.520;13.450;2023-08-21T00:27:14;23.80;72.90
13369;DHT22;6753;52.520;13.450;2023-08-21T00:27:24;23.50;72.70
13369;DHT22;6753;52.520;13.450;2023-08-21T00:27:36;23.50;72.70
13369;DHT22;6753;52.520;13.450;2023-08-21T00:27:47;23.50;72.70
13369;DHT22;6753;52.520;13.450;2023-08-21T00:27:58;23.50;72.70
13369;DHT22;6753;52.520;13.450;2023-08-21T00:28:08;23.50;72.70
13369;DHT22;6753;52.520;13.450;2023-08-21T00:28:19;23.50;72.70
13369;DHT22;6753;52.520;13.450;2023-08-21T00:28:30;23.50;72.70
13369;DHT22;6753;52.520;13.450;2023-08-21T00:28:43;23.50;72.70
13369;DHT22;6753;52.520;13.450;2023-08-21T00:28:54;23.50;72.70
13369;DHT22;6753;52.520;13.450;2023-08-21T00:29:05;23.50;72.70
13369;DHT22;6753;52.520;13.450;2023-08-21T00:29:16;23.60;72.80
13369;DHT22;6753;52.520;13.450;2023-08-21T00:29:27;23.50;72.70
13369;DHT22;6753;52.520;13.450;2023-08-21T00:29:38;23.50;72.70
13369;DHT22;6753;52.520;13.450;2023-08-21T00:29:49;23.50;72.70
13369;DHT22;6753;52.520;13.450;2023-08-21T00:30:00;23.50;72.70
13369;DHT22;6753;52.520;13.450;2023-08-21T00:30:12;23.50;72.70
13369;DHT22;6753;52.520;13.450;2023-08-21T00:30:25;23.50;72.70
13369;DHT22;6753;52.520;13.450;2023-08-21T00:30:36;23.50;72.70
13369;DHT22;6753;52.520;13.450;2023-08-21T00:30:46;23.50;72.70
13369;DHT22;6753;52.520;13.450;2023-08-21T00:31:00;23.50;72.70
13369;DHT22;6753;52.520;13.450;2023-08-21T00:31:11;23.50;72.70
13369;DHT22;6753;52.520;13.450;2023-08-21T00:31:23;23.50;72.70
13369;DHT22;6753;52.520;13.450;2023-08-21T00:31:33;23.50;72.70
13369;DHT22;6753;52.520;13.450;2023-08-21T00:31:44;23.50;72.70
13369;DHT22;6753;52.520;13.450;2023-08-21T00:31:55;23.60;72.80
13369;DHT22;6753;52.520;13.450;2023-08-21T00:32:06;23.50;72.70
13369;DHT22;6753;52.520;13.450;2023-08-21T00:32:19;23.50;72.70
13369;DHT22;6753;52.520;13.450;2023-08-21T00:32:30;23.50;72.70
13369;DHT22;6753;52.520;13.450;2023-08-21T00:32:41;23.50;72.70
13369;DHT22;6753;52.520;13.450;2023-08-21T00:32:52;23.50;72.70
13369;DHT22;6753;52.520;13.450;2023-08-21T00:33:03;23.50;72.70
13369;DHT22;6753;52.520;13.450;2023-08-21T00:33:14;23.50;72.70
13369;DHT22;6753;52.520;13.450;2023-08-21T00:33:25;23.50;72.70
13369;DHT22;6753;52.520;13.450;2023-08-21T00:33:36;23.50;72.70
13369;DHT22;6753;52.520;13.450;2023-08-21T00:33:47;23.80;72.90
13369;DHT22;6753;52.520;13.450;2023-08-21T00:33:58;23.50;72.70
13369;DHT22;6753;52.520;13.450;2023-08-21T00:34:09;23.50;72.70
13369;DHT22;6753;52.520;13.450;2023-08-21T00:34:19;23.50;72.70
13369;DHT22;6753;52.520;13.450;2023-08-21T00:34:30;23.50;72.70
13369;DHT22;6753;52.520;13.450;2023-08-21T00:34:41;23.50;72.70
13369;DHT22;6753;52.520;13.450;2023-08-21T00:34:53;23.50;72.70
13369;DHT22;6753;52.520;13.450;2023-08-21T00:35:04;23.50;72.70
13369;DHT22;6753;52.520;13.450;2023-08-21T00:35:15;23.50;72.70
13369;DHT22;6753;52.520;13.450;2023-08-21T00:35:26;23.50;72.70
13369;DHT22;6753;52.520;13.450;2023-08-21T00:35:36;23.50;72.70
13369;DHT22;6753;52.520;13.450;2023-08-21T00:35:47;23.50;72.70
13369;DHT22;6753;52.520;13.450;2023-08-21T00:35:59;23.50;72.70
13369;DHT22;6753;52.520;13.450;2023-08-21T00:36:10;23.50;72.70
13369;DHT22;6753;52.520;13.450;2023-08-21T00:36:21;23.50;72.80
13369;DHT22;6753;52.520;13.450;2023-08-21T00:36:32;23.50;72.70
13369;DHT22;6753;52.520;13.450;2023-08-21T00:36:44;23.60;72.80
13369;DHT22;6753;52.520;13.450;2023-08-21T00:36:54;23.40;72.60
13369;DHT22;6753;52.520;13.450;2023-08-21T00:37:05;23.50;72.70
13369;DHT22;6753;52.520;13.450;2023-08-21T00:37:16;23.60;72.70
13369;DHT22;6753;52.520;13.450;2023-08-21T00:37:26;23.50;72.70
13369;DHT22;6753;52.520;13.450;2023-08-21T00:37:37;23.70;72.80
13369;DHT22;6753;52.520;13.450;2023-08-21T00:37:48;23.50;72.70
13369;DHT22;6753;52.520;13.450;2023-08-21T00:37:59;23.50;72.70
13369;DHT22;6753;52.520;13.450;2023-08-21T00:38:09;23.50;72.70
13369;DHT22;6753;52.520;13.450;2023-08-21T00:38:21;23.50;72.70
13369;DHT22;6753;52.520;13.450;2023-08-21T00:38:32;23.50;72.70
13369;DHT22;6753;52.520;13.450;2023-08-21T00:38:43;23.50;72.70
13369;DHT22;6753;52.520;13.450;2023-08-21T00:38:53;23.50;72.70
13369;DHT22;6753;52.520;13.450;2023-08-21T00:39:04;23.50;72.70
13369;DHT22;6753;52.520;13.450;2023-08-21T00:39:15;23.50;72.70
13369;DHT22;6753;52.520;13.450;2023-08-21T00:39:26;23.50;72.70
13369;DHT22;6753;52.520;13.450;2023-08-21T00:39:37;23.70;72.80
13369;DHT22;6753;52.520;13.450;2023-08-21T00:39:47;23.50;72.70
13369;DHT22;6753;52.520;13.450;2023-08-21T00:39:59;23.50;72.70
13369;DHT22;6753;52.520;13.450;2023-08-21T00:40:10;23.50;72.70
13369;DHT22;6753;52.520;13.450;2023-08-21T00:40:21;23.50;72.70
13369;DHT22;6753;52.520;13.450;2023-08-21T00:40:32;23.90;73.00
13369;DHT22;6753;52.520;13.450;2023-08-21T00:40:43;23.50;72.70
13369;DHT22;6753;52.520;13.450;2023-08-21T00:40:53;23.50;72.70
13369;DHT22;6753;52.520;13.450;2023-08-21T00:41:04;23.60;72.80
13369;DHT22;6753;52.520;13.450;2023-08-21T00:41:15;23.50;72.70
13369;DHT22;6753;52.520;13.450;2023-08-21T00:41:26;23.50;72.70
13369;DHT22;6753;52.520;13.450;2023-08-21T00:41:40;23.50;72.70
13369;DHT22;6753;52.520;13.450;2023-08-21T00:41:52;23.50;72.70
13369;DHT22;6753;52.520;13.450;2023-08-21T00:42:03;23.50;72.70
13369;DHT22;6753;52.520;13.450;2023-08-21T00:42:14;23.50;72.70
13369;DHT22;6753;52.520;13.450;2023-08-21T00:42:24;23.50;72.70
13369;DHT22;6753;52.520;13.450;2023-08-21T00:42:35;23.50;72.70
13369;DHT22;6753;52.520;13.450;2023-08-21T00:42:46;23.50;72.70
13369;DHT22;6753;52.520;13.450;2023-08-21T00:42:57;23.50;72.70
13369;DHT22;6753;52.520;13.450;2023-08-21T00:43:07;23.50;72.70
13369;DHT22;6753;52.520;13.450;2023-08-21T00:43:18;23.50;72.70
13369;DHT22;6753;52.520;13.450;2023-08-21T00:43:30;23.50;72.70
13369;DHT22;6753;52.520;13.450;2023-08-21T00:43:40;23.50;72.70
13369;DHT22;6753;52.520;13.450;2023-08-21T00:43:51;23.50;72.70
13369;DHT22;6753;52.520;13.450;2023-08-21T00:44:02;23.50;72.70
13369;DHT22;6753;52.520;13.450;2023-08-21T00:44:14;23.50;72.70
13369;DHT22;6753;52.520;13.450;2023-08-21T00:44:25;23.40;72.60
13369;DHT22;6753;52.520;13.450;2023-08-21T00:44:35;23.50;72.70
13369;DHT22;6753;52.520;13.450;2023-08-21T00:44:46;23.50;72.60
13369;DHT22;6753;52.520;13.450;2023-08-21T00:44:57;23.50;72.70
13369;DHT22;6753;52.520;13.450;2023-08-21T00:45:09;23.40;72.60
13369;DHT22;6753;52.520;13.450;2023-08-21T00:45:19;23.50;72.60
13369;DHT22;6753;52.520;13.450;2023-08-21T00:45:30;23.40;72.60
13369;DHT22;6753;52.520;13.450;2023-08-21T00:45:43;23.40;72.60
13369;DHT22;6753;52.520;13.450;2023-08-21T00:45:54;23.50;72.60
13369;DHT22;6753;52.520;13.450;2023-08-21T00:46:05;23.50;72.60
13369;DHT22;6753;52.520;13.450;2023-08-21T00:46:16;23.50;72.60
13369;DHT22;6753;52.520;13.450;2023-08-21T00:46:27;23.50;72.60
13369;DHT22;6753;52.520;13.450;2023-08-21T00:46:38;23.40;72.60
13369;DHT22;6753;52.520;13.450;2023-08-21T00:46:50;23.50;72.60
13369;DHT22;6753;52.520;13.450;2023-08-21T00:47:01;23.50;72.60
13369;DHT22;6753;52.520;13.450;2023-08-21T00:47:12;23.50;72.60
13369;DHT22;6753;52.520;13.450;2023-08-21T00:47:23;23.50;72.60
13369;DHT22;6753;52.520;13.450;2023-08-21T00:47:33;23.50;72.60
13369;DHT22;6753;52.520;13.450;2023-08-21T00:47:44;23.50;72.60
13369;DHT22;6753;52.520;13.450;2023-08-21T00:47:55;23.50;72.60
13369;DHT22;6753;52.520;13.450;2023-08-21T00:48:07;23.40;72.60
13369;DHT22;6753;52.520;13.450;2023-08-21T00:48:18;23.60;72.70
13369;DHT22;6753;52.520;13.450;2023-08-21T00:48:32;23.50;72.60
13369;DHT22;6753;52.520;13.450;2023-08-21T00:48:44;23.50;72.60
13369;DHT22;6753;52.520;13.450;2023-08-21T00:48:59;23.40;72.60
13369;DHT22;6753;52.520;13.450;2023-08-21T00:49:11;23.50;72.60
13369;DHT22;6753;52.520;13.450;2023-08-21T00:49:21;23.50;72.60
13369;DHT22;6753;52.520;13.450;2023-08-21T00:49:32;23.50;72.60
13369;DHT22;6753;52.520;13.450;2023-08-21T00:49:43;23.50;72.60
13369;DHT22;6753;52.520;13.450;2023-08-21T00:49:54;23.50;72.60
13369;DHT22;6753;52.520;13.450;2023-08-21T00:50:06;23.50;72.60
13369;DHT22;6753;52.520;13.450;2023-08-21T00:50:18;23.50;72.60
13369;DHT22;6753;52.520;13.450;2023-08-21T00:50:29;23.50;72.60
13369;DHT22;6753;52.520;13.450;2023-08-21T00:50:40;23.50;72.60
13369;DHT22;6753;52.520;13.450;2023-08-21T00:50:51;23.50;72.60
13369;DHT22;6753;52.520;13.450;2023-08-21T00:51:05;23.70;72.80
13369;DHT22;6753;52.520;13.450;2023-08-21T00:51:17;23.40;72.60
13369;DHT22;6753;52.520;13.450;2023-08-21T00:51:28;23.50;72.60
13369;DHT22;6753;52.520;13.450;2023-08-21T00:51:39;23.50;72.60
13369;DHT22;6753;52.520;13.450;2023-08-21T00:51:51;23.50;72.60
13369;DHT22;6753;52.520;13.450;2023-08-21T00:52:07;23.50;72.60
13369;DHT22;6753;52.520;13.450;2023-08-21T00:52:18;23.40;72.60
13369;DHT22;6753;52.520;13.450;2023-08-21T00:52:30;23.50;72.60
13369;DHT22;6753;52.520;13.450;2023-08-21T00:52:44;23.50;72.60
13369;DHT22;6753;52.520;13.450;2023-08-21T00:52:56;23.50;72.60
13369;DHT22;6753;52.520;13.450;2023-08-21T00:53:07;23.50;72.60
13369;DHT22;6753;52.520;13.450;2023-08-21T00:53:18;23.50;72.60
13369;DHT22;6753;52.520;13.450;2023-08-21T00:53:28;23.60;72.70
13369;DHT22;6753;52.520;13.450;2023-08-21T00:53:39;23.50;72.60
13369;DHT22;6753;52.520;13.450;2023-08-21T00:53:50;23.40;72.60
13369;DHT22;6753;52.520;13.450;2023-08-21T00:54:01;23.40;72.50
13369;DHT22;6753;52.520;13.450;2023-08-21T00:54:12;23.50;72.60
13369;DHT22;6753;52.520;13.450;2023-08-21T00:54:24;23.50;72.60
13369;DHT22;6753;52.520;13.450;2023-08-21T00:54:35;23.50;72.60
13369;DHT22;6753;52.520;13.450;2023-08-21T00:54:45;23.40;72.60
13369;DHT22;6753;52.520;13.450;2023-08-21T00:54:57;23.50;72.60
13369;DHT22;6753;52.520;13.450;2023-08-21T00:55:08;23.50;72.60
13369;DHT22;6753;52.520;13.450;2023-08-21T00:55:20;23.50;72.60
13369;DHT22;6753;52.520;13.450;2023-08-21T00:55:31;23.50;72.60
13369;DHT22;6753;52.520;13.450;2023-08-21T00:55:42;23.50;72.60
13369;DHT22;6753;52.520;13.450;2023-08-21T00:55:53;23.70;72.70
13369;DHT22;6753;52.520;13.450;2023-08-21T00:56:04;23.50;72.60
13369;DHT22;6753;52.520;13.450;2023-08-21T00:56:16;23.50;72.60
13369;DHT22;6753;52.520;13.450;2023-08-21T00:56:27;23.50;72.60
13369;DHT22;6753;52.520;13.450;2023-08-21T00:56:38;23.70;72.70
13369;DHT22;6753;52.520;13.450;2023-08-21T00:56:49;23.50;72.60
13369;DHT22;6753;52.520;13.450;2023-08-21T00:57:02;23.50;72.60
13369;DHT22;6753;52.520;13.450;2023-08-21T00:57:14;23.50;72.60
13369;DHT22;6753;52.520;13.450;2023-08-21T00:57:26;23.40;72.50
13369;DHT22;6753;52.520;13.450;2023-08-21T00:57:38;23.40;72.50
13369;DHT22;6753;52.520;13.450;2023-08-21T00:57:49;23.40;72.50
13369;DHT22;6753;52.520;13.450;2023-08-21T00:58:00;23.50;72.60
13369;DHT22;6753;52.520;13.450;2023-08-21T00:58:14;23.40;72.50
13369;DHT22;6753;52.520;13.450;2023-08-21T00:58:25;23.50;72.60
13369;DHT22;6753;52.520;13.450;2023-08-21T00:58:36;23.50;72.60
13369;DHT22;6753;52.520;13.450;2023-08-21T00:58:47;23.70;72.70
13369;DHT22;6753;52.520;13.450;2023-08-21T00:58:58;23.50;72.60
13369;DHT22;6753;52.520;13.450;2023-08-21T00:59:09;23.40;72.50
13369;DHT22;6753;52.520;13.450;2023-08-21T00:59:20;23.40;72.50
13369;DHT22;6753;52.520;13.450;2023-08-21T00:59:31;23.50;72.60
13369;DHT22;6753;52.520;13.450;2023-08-21T00:59:42;23.50;72.60
13369;DHT22;6753;52.520;13.450;2023-08-21T00:59:54;23.70;72.70
13369;DHT22;6753;52.520;13.450;2023-08-21T01:00:06;23.40;72.60
13369;DHT22;6753;52.520;13.450;2023-08-21T01:00:18;23.50;72.60
13369;DHT22;6753;52.520;13.450;2023-08-21T01:00:30;23.50;72.60
13369;DHT22;6753;52.520;13.450;2023-08-21T01:00:42;23.50;72.60
13369;DHT22;6753;52.520;13.450;2023-08-21T01:00:55;23.50;72.60
13369;DHT22;6753;52.520;13.450;2023-08-21T01:01:05;23.40;72.60
13369;DHT22;6753;52.520;13.450;2023-08-21T01:01:18;23.50;72.60
13369;DHT22;6753;52.520;13.450;2023-08-21T01:01:30;23.40;72.80
13369;DHT22;6753;52.520;13.450;2023-08-21T01:01:41;23.40;72.60
13369;DHT22;6753;52.520;13.450;2023-08-21T01:01:53;23.50;72.60
13369;DHT22;6753;52.520;13.450;2023-08-21T01:02:06;23.40;72.60
13369;DHT22;6753;52.520;13.450;2023-08-21T01:02:17;23.40;72.60
13369;DHT22;6753;52.520;13.450;2023-08-21T01:02:29;23.40;72.60
13369;DHT22;6753;52.520;13.450;2023-08-21T01:02:40;23.40;72.60
13369;DHT22;6753;52.520;13.450;2023-08-21T01:02:51;23.40;72.60
13369;DHT22;6753;52.520;13.450;2023-08-21T01:03:01;23.50;72.60
13369;DHT22;6753;52.520;13.450;2023-08-21T01:03:13;23.40;72.60
13369;DHT22;6753;52.520;13.450;2023-08-21T01:03:26;23.40;72.60
13369;DHT22;6753;52.520;13.450;2023-08-21T01:03:37;23.40;72.80
13369;DHT22;6753;52.520;13.450;2023-08-21T01:03:49;23.40;72.50
13369;DHT22;6753;52.520;13.450;2023-08-21T01:04:02;23.40;72.50
13369;DHT22;6753;52.520;13.450;2023-08-21T01:04:13;23.40;72.60
13369;DHT22;6753;52.520;13.450;2023-08-21T01:04:24;23.40;72.50
13369;DHT22;6753;52.520;13.450;2023-08-21T01:04:36;23.40;72.60
13369;DHT22;6753;52.520;13.450;2023-08-21T01:04:47;23.50;72.60
13369;DHT22;6753;52.520;13.450;2023-08-21T01:04:58;23.40;72.60
13369;DHT22;6753;52.520;13.450;2023-08-21T01:05:09;23.40;72.50
13369;DHT22;6753;52.520;13.450;2023-08-21T01:05:23;23.40;72.50
13369;DHT22;6753;52.520;13.450;2023-08-21T01:05:35;23.40;72.50
13369;DHT22;6753;52.520;13.450;2023-08-21T01:05:46;23.40;72.60
13369;DHT22;6753;52.520;13.450;2023-08-21T01:05:57;23.40;72.60
13369;DHT22;6753;52.520;13.450;2023-08-21T01:06:09;23.40;72.60
13369;DHT22;6753;52.520;13.450;2023-08-21T01:06:20;23.40;72.60
13369;DHT22;6753;52.520;13.450;2023-08-21T01:06:31;23.40;72.60
13369;DHT22;6753;52.520;13.450;2023-08-21T01:06:42;23.40;72.60
13369;DHT22;6753;52.520;13.450;2023-08-21T01:06:53;23.40;72.60
13369;DHT22;6753;52.520;13.450;2023-08-21T01:07:04;23.40;72.50
13369;DHT22;6753;52.520;13.450;2023-08-21T01:07:20;23.40;72.50
13369;DHT22;6753;52.520;13.450;2023-08-21T01:07:32;23.40;72.50
13369;DHT22;6753;52.520;13.450;2023-08-21T01:07:51;23.40;72.60
13369;DHT22;6753;52.520;13.450;2023-08-21T01:08:06;23.40;72.50
13369;DHT22;6753;52.520;13.450;2023-08-21T01:08:24;23.40;72.60
13369;DHT22;6753;52.520;13.450;2023-08-21T01:08:42;23.40;72.60
13369;DHT22;6753;52.520;13.450;2023-08-21T01:08:57;23.40;72.60
13369;DHT22;6753;52.520;13.450;2023-08-21T01:09:15;23.40;72.60
13369;DHT22;6753;52.520;13.450;2023-08-21T01:09:31;23.40;72.60
13369;DHT22;6753;52.520;13.450;2023-08-21T01:09:49;23.50;72.70
13369;DHT22;6753;52.520;13.450;2023-08-21T01:10:04;23.40;72.60
13369;DHT22;6753;52.520;13.450;2023-08-21T01:10:25;23.40;72.60
13369;DHT22;6753;52.520;13.450;2023-08-21T01:10:45;23.40;72.60
13369;DHT22;6753;52.520;13.450;2023-08-21T01:11:02;23.40;72.60
13369;DHT22;6753;52.520;13.450;2023-08-21T01:11:21;23.40;72.60
13369;DHT22;6753;52.520;13.450;2023-08-21T01:11:38;23.40;72.60
13369;DHT22;6753;52.520;13.450;2023-08-21T01:11:58;23.40;72.60
13369;DHT22;6753;52.520;13.450;2023-08-21T01:12:18;23.40;72.60
13369;DHT22;6753;52.520;13.450;2023-08-21T01:12:37;23.40;72.60